Time;durP1;ratioP1;P1;durP2;ratioP2;P2;SDS_P1;SDS_P2;PMS_P1;PMS_P2;Temp;Humidity;BMP_temperature;BMP_pressure;BME280_temperature;BME280_humidity;BME280_pressure;Samples;Min_cycle;Max_cycle;Signal;HPM_P1;HPM_P2
2023/12/18 00:01:03;;;;;;;0.00;0.00;;;;;;;;;;6248103;22;20004;-86
2023/12/18 00:03:29;;;;;;;0.00;0.00;;;;;;;;;;6274950;22;20062;-85
2023/12/18 00:05:55;;;;;;;0.00;0.00;;;;;;;;;;6275214;22;20053;-85
2023/12/18 00:08:21;;;;;;;0.00;0.00;;;;;;;;;;6275011;22;20413;-85
2023/12/18 00:10:47;;;;;;;0.00;0.00;;;;;;;;;;6252393;22;19999;-85
2023/12/18 00:13:13;;;;;;;0.00;0.00;;;;;;;;;;6225645;22;20506;-85
2023/12/18 00:15:38;;;;;;;0.00;0.00;;;;;;;;;;6275389;22;20000;-85
2023/12/18 00:18:04;;;;;;;0.00;0.00;;;;;;;;;;6273946;22;20004;-85
2023/12/18 00:20:29;;;;;;;0.00;0.00;;;;;;;;;;6274824;22;20066;-86
2023/12/18 00:22:55;;;;;;;0.00;0.00;;;;;;;;;;6248316;22;20014;-85
2023/12/18 00:25:20;;;;;;;0.00;0.00;;;;;;;;;;6274861;22;19999;-86
2023/12/18 00:27:46;;;;;;;0.00;0.00;;;;;;;;;;6248279;22;20015;-86
2023/12/18 00:30:12;;;;;;;0.00;0.00;;;;;;;;;;6254836;22;20004;-85
2023/12/18 00:32:37;;;;;;;0.00;0.00;;;;;;;;;;6287848;22;20003;-85
2023/12/18 00:35:03;;;;;;;0.00;0.00;;;;;;;;;;6195566;22;20003;-85
2023/12/18 00:37:29;;;;;;;0.00;0.00;;;;;;;;;;6246649;22;20004;-85
2023/12/18 00:39:54;;;;;;;0.00;0.00;;;;;;;;;;6274805;22;20023;-85
2023/12/18 00:42:20;;;;;;;0.00;0.00;;;;;;;;;;6274831;22;20466;-85
2023/12/18 00:48:17;;;;;;;0.00;0.00;;;;;;;;;;6178993;22;20022;-85
2023/12/18 00:50:43;;;;;;;0.00;0.00;;;;;;;;;;6262312;22;20352;-85
2023/12/18 00:53:10;;;;;;;0.00;0.00;;;;;;;;;;6275836;22;20450;-85
2023/12/18 00:55:35;;;;;;;0.00;0.00;;;;;;;;;;6274381;22;20000;-86
2023/12/18 00:58:01;;;;;;;0.00;0.00;;;;;;;;;;6274395;22;20008;-85
2023/12/18 01:00:27;;;;;;;0.00;0.00;;;;;;;;;;6274640;22;20006;-86
2023/12/18 01:02:52;;;;;;;0.00;0.00;;;;;;;;;;6274495;22;20004;-86
2023/12/18 01:05:18;;;;;;;0.00;0.00;;;;;;;;;;6247766;22;20078;-85
2023/12/18 01:07:43;;;;;;;0.00;0.00;;;;;;;;;;6247123;22;20066;-85
2023/12/18 01:10:09;;;;;;;0.00;0.00;;;;;;;;;;6284651;22;20000;-87
2023/12/18 01:12:35;;;;;;;0.00;0.00;;;;;;;;;;6280712;22;20003;-84
2023/12/18 01:15:00;;;;;;;0.00;0.00;;;;;;;;;;6252804;22;20006;-83
2023/12/18 01:17:26;;;;;;;0.00;0.00;;;;;;;;;;6277679;22;20015;-84
2023/12/18 01:19:51;;;;;;;0.00;0.00;;;;;;;;;;6222173;22;20000;-85
2023/12/18 01:22:17;;;;;;;0.00;0.00;;;;;;;;;;6247045;22;20433;-86
2023/12/18 01:24:42;;;;;;;0.00;0.00;;;;;;;;;;6274083;22;20045;-86
2023/12/18 01:27:08;;;;;;;0.00;0.00;;;;;;;;;;6222354;22;20008;-86
2023/12/18 01:29:34;;;;;;;0.00;0.00;;;;;;;;;;6277098;22;20065;-83
2023/12/18 01:31:59;;;;;;;0.00;0.00;;;;;;;;;;6254132;22;20003;-87
2023/12/18 01:34:25;;;;;;;0.00;0.00;;;;;;;;;;6274405;22;20014;-86
2023/12/18 01:36:50;;;;;;;0.00;0.00;;;;;;;;;;6220053;22;20016;-86
2023/12/18 01:39:16;;;;;;;0.00;0.00;;;;;;;;;;6246833;22;20026;-86
2023/12/18 01:41:41;;;;;;;0.00;0.00;;;;;;;;;;6274896;22;20003;-85
2023/12/18 01:44:07;;;;;;;0.00;0.00;;;;;;;;;;6276678;22;20006;-85
2023/12/18 01:46:34;;;;;;;0.00;0.00;;;;;;;;;;6222194;22;20038;-86
2023/12/18 01:48:59;;;;;;;0.00;0.00;;;;;;;;;;6222790;22;20007;-86
2023/12/18 01:51:25;;;;;;;0.00;0.00;;;;;;;;;;6254123;22;20115;-85
2023/12/18 01:53:52;;;;;;;0.00;0.00;;;;;;;;;;6221946;22;20439;-85
2023/12/18 01:56:18;;;;;;;0.00;0.00;;;;;;;;;;6222179;22;20004;-86
2023/12/18 01:58:44;;;;;;;0.00;0.00;;;;;;;;;;6222087;22;20069;-85
2023/12/18 02:01:09;;;;;;;0.00;0.00;;;;;;;;;;6247426;22;20011;-86
2023/12/18 02:03:35;;;;;;;0.00;0.00;;;;;;;;;;6197552;22;20370;-86
2023/12/18 02:06:00;;;;;;;0.00;0.00;;;;;;;;;;6222000;22;20015;-85
2023/12/18 02:08:26;;;;;;;0.00;0.00;;;;;;;;;;6196970;22;20003;-85
2023/12/18 02:10:52;;;;;;;0.00;0.00;;;;;;;;;;6253504;22;20011;-86
2023/12/18 02:13:18;;;;;;;0.00;0.00;;;;;;;;;;6276413;22;20007;-87
2023/12/18 02:15:43;;;;;;;0.00;0.00;;;;;;;;;;6247204;22;20003;-85
2023/12/18 02:18:09;;;;;;;0.00;0.00;;;;;;;;;;6273830;22;20468;-85
2023/12/18 02:20:35;;;;;;;0.00;0.00;;;;;;;;;;6248639;22;20094;-85
2023/12/18 02:23:01;;;;;;;0.00;0.00;;;;;;;;;;6276060;22;20082;-84
2023/12/18 02:25:27;;;;;;;0.00;0.00;;;;;;;;;;6276082;22;19999;-84
2023/12/18 02:27:52;;;;;;;0.00;0.00;;;;;;;;;;6249699;22;20091;-85
2023/12/18 02:30:20;;;;;;;0.00;0.00;;;;;;;;;;6275657;22;20088;-85
2023/12/18 02:32:46;;;;;;;0.00;0.00;;;;;;;;;;6279900;22;20004;-85
2023/12/18 02:35:11;;;;;;;0.00;0.00;;;;;;;;;;6247798;22;20061;-86
2023/12/18 02:37:37;;;;;;;0.00;0.00;;;;;;;;;;6275696;22;20000;-85
2023/12/18 02:40:04;;;;;;;0.00;0.00;;;;;;;;;;6272765;22;20008;-86
2023/12/18 02:42:30;;;;;;;0.00;0.00;;;;;;;;;;6275874;22;20059;-85
2023/12/18 02:44:56;;;;;;;0.00;0.00;;;;;;;;;;6248948;22;20003;-84
2023/12/18 02:47:22;;;;;;;0.00;0.00;;;;;;;;;;6248901;22;20031;-85
2023/12/18 02:49:47;;;;;;;0.00;0.00;;;;;;;;;;6249238;22;20007;-85
2023/12/18 02:52:26;;;;;;;0.00;0.00;;;;;;;;;;6253202;22;20312;-86
2023/12/18 02:54:52;;;;;;;0.00;0.00;;;;;;;;;;6275803;22;20046;-85
2023/12/18 02:57:17;;;;;;;0.00;0.00;;;;;;;;;;6275928;22;20003;-84
2023/12/18 02:59:46;;;;;;;0.00;0.00;;;;;;;;;;6248851;22;20007;-87
2023/12/18 03:02:12;;;;;;;0.00;0.00;;;;;;;;;;6249470;22;20006;-84
2023/12/18 03:04:40;;;;;;;0.00;0.00;;;;;;;;;;6275541;22;20346;-85
2023/12/18 03:07:07;;;;;;;0.00;0.00;;;;;;;;;;6276021;22;20030;-85
2023/12/18 03:09:32;;;;;;;0.00;0.00;;;;;;;;;;6249194;22;20015;-84
2023/12/18 03:12:07;;;;;;;0.00;0.00;;;;;;;;;;6289857;22;20004;-85
2023/12/18 03:14:33;;;;;;;0.00;0.00;;;;;;;;;;6280637;22;20003;-85
2023/12/18 03:16:58;;;;;;;0.00;0.00;;;;;;;;;;6280948;22;20059;-86
2023/12/18 03:19:24;;;;;;;0.00;0.00;;;;;;;;;;6276075;22;20426;-85
2023/12/18 03:21:49;;;;;;;0.00;0.00;;;;;;;;;;6281428;22;20023;-85
2023/12/18 03:24:15;;;;;;;0.00;0.00;;;;;;;;;;6270577;22;20003;-85
2023/12/18 03:26:41;;;;;;;0.00;0.00;;;;;;;;;;6288750;22;19992;-86
2023/12/18 03:29:08;;;;;;;0.00;0.00;;;;;;;;;;6284514;22;20026;-85
2023/12/18 03:31:33;;;;;;;0.00;0.00;;;;;;;;;;6237301;22;20094;-86
2023/12/18 03:33:59;;;;;;;0.00;0.00;;;;;;;;;;6255734;22;20000;-86
2023/12/18 03:36:24;;;;;;;0.00;0.00;;;;;;;;;;6275427;22;20423;-87
2023/12/18 03:38:50;;;;;;;0.00;0.00;;;;;;;;;;6248846;22;20093;-84
2023/12/18 03:41:16;;;;;;;0.00;0.00;;;;;;;;;;6275408;22;20023;-86
2023/12/18 03:43:41;;;;;;;0.00;0.00;;;;;;;;;;6250497;22;20007;-85
2023/12/18 03:46:07;;;;;;;0.00;0.00;;;;;;;;;;6232374;22;20047;-84
2023/12/18 03:48:32;;;;;;;0.00;0.00;;;;;;;;;;6302182;22;20008;-84
2023/12/18 03:50:58;;;;;;;0.00;0.00;;;;;;;;;;6287942;22;20000;-85
2023/12/18 03:53:23;;;;;;;0.00;0.00;;;;;;;;;;6300873;22;20015;-85
2023/12/18 03:55:49;;;;;;;0.00;0.00;;;;;;;;;;6298511;22;20010;-85
2023/12/18 03:58:14;;;;;;;0.00;0.00;;;;;;;;;;6275112;22;20015;-85
2023/12/18 04:00:41;;;;;;;0.00;0.00;;;;;;;;;;6275455;22;20015;-85
2023/12/18 04:03:09;;;;;;;0.00;0.00;;;;;;;;;;6248182;22;20467;-86
2023/12/18 04:05:38;;;;;;;0.00;0.00;;;;;;;;;;6274860;22;20003;-85
2023/12/18 04:08:04;;;;;;;0.00;0.00;;;;;;;;;;6225219;22;20038;-84
2023/12/18 04:10:30;;;;;;;0.00;0.00;;;;;;;;;;6267638;22;20004;-86
2023/12/18 04:12:55;;;;;;;0.00;0.00;;;;;;;;;;6269211;22;20011;-84
2023/12/18 04:15:21;;;;;;;0.00;0.00;;;;;;;;;;6275803;22;20035;-86
2023/12/18 04:17:46;;;;;;;0.00;0.00;;;;;;;;;;6280643;22;20030;-83
2023/12/18 04:20:12;;;;;;;0.00;0.00;;;;;;;;;;6282163;22;20003;-86
2023/12/18 04:26:19;;;;;;;0.00;0.00;;;;;;;;;;6239067;22;20034;-84
2023/12/18 04:28:44;;;;;;;0.00;0.00;;;;;;;;;;6298003;22;20004;-84
2023/12/18 04:31:10;;;;;;;0.00;0.00;;;;;;;;;;6261613;22;19986;-84
2023/12/18 04:33:38;;;;;;;0.00;0.00;;;;;;;;;;6303461;22;19996;-83
2023/12/18 04:36:04;;;;;;;0.00;0.00;;;;;;;;;;6277531;22;20026;-84
2023/12/18 04:38:30;;;;;;;0.00;0.00;;;;;;;;;;6283364;22;20381;-84
2023/12/18 04:40:57;;;;;;;0.00;0.00;;;;;;;;;;6248068;22;20053;-85
2023/12/18 04:43:22;;;;;;;0.00;0.00;;;;;;;;;;6256451;22;20047;-85
2023/12/18 04:45:48;;;;;;;0.00;0.00;;;;;;;;;;6276244;22;20125;-84
2023/12/18 04:48:13;;;;;;;0.00;0.00;;;;;;;;;;6250200;22;20062;-86
2023/12/18 04:50:39;;;;;;;0.00;0.00;;;;;;;;;;6288446;22;20015;-86
2023/12/18 04:53:04;;;;;;;0.00;0.00;;;;;;;;;;6284063;22;20003;-85
2023/12/18 04:55:35;;;;;;;0.00;0.00;;;;;;;;;;6275252;22;20007;-86
2023/12/18 04:58:01;;;;;;;0.00;0.00;;;;;;;;;;6248626;22;20061;-86
2023/12/18 05:00:26;;;;;;;0.00;0.00;;;;;;;;;;6274916;22;20000;-86
2023/12/18 05:02:52;;;;;;;0.00;0.00;;;;;;;;;;6274854;22;20004;-85
2023/12/18 05:05:17;;;;;;;0.00;0.00;;;;;;;;;;6276950;22;20006;-86
2023/12/18 05:07:43;;;;;;;0.00;0.00;;;;;;;;;;6274972;22;20007;-86
2023/12/18 05:10:08;;;;;;;0.00;0.00;;;;;;;;;;6275665;22;20003;-86
2023/12/18 05:12:34;;;;;;;0.00;0.00;;;;;;;;;;6276280;22;19999;-87
2023/12/18 05:15:09;;;;;;;0.00;0.00;;;;;;;;;;6272085;22;20049;-86
2023/12/18 05:17:34;;;;;;;0.00;0.00;;;;;;;;;;6273583;22;20011;-85
2023/12/18 05:20:00;;;;;;;0.00;0.00;;;;;;;;;;6273971;22;20011;-85
2023/12/18 05:22:25;;;;;;;0.00;0.00;;;;;;;;;;6274359;22;20423;-85
2023/12/18 05:24:51;;;;;;;0.00;0.00;;;;;;;;;;6274620;22;20000;-85
2023/12/18 05:27:17;;;;;;;0.00;0.00;;;;;;;;;;6274925;22;20030;-84
2023/12/18 05:29:43;;;;;;;0.00;0.00;;;;;;;;;;6276760;22;20137;-85
2023/12/18 05:32:08;;;;;;;0.00;0.00;;;;;;;;;;6277272;22;20003;-86
2023/12/18 05:34:34;;;;;;;0.00;0.00;;;;;;;;;;6276189;22;20006;-81
2023/12/18 05:37:03;;;;;;;0.00;0.00;;;;;;;;;;6221619;22;20012;-81
2023/12/18 05:39:28;;;;;;;0.00;0.00;;;;;;;;;;6247688;22;20328;-79
2023/12/18 05:44:38;;;;;;;0.00;0.00;;;;;;;;;;6250562;22;20083;-80
2023/12/18 05:47:04;;;;;;;0.00;0.00;;;;;;;;;;6276528;22;20008;-79
2023/12/18 05:49:40;;;;;;;0.00;0.00;;;;;;;;;;6247324;22;20439;-80
2023/12/18 05:52:05;;;;;;;0.00;0.00;;;;;;;;;;6250691;22;20143;-79
2023/12/18 05:54:31;;;;;;;0.00;0.00;;;;;;;;;;6230919;22;20125;-80
2023/12/18 06:00:07;;;;;;;0.00;0.00;;;;;;;;;;6165816;22;20446;-80
2023/12/18 06:02:56;;;;;;;0.00;0.00;;;;;;;;;;6242358;22;20008;-80
2023/12/18 06:05:25;;;;;;;0.00;0.00;;;;;;;;;;6201671;22;20090;-84
2023/12/18 06:07:58;;;;;;;0.00;0.00;;;;;;;;;;6189294;22;20015;-81
2023/12/18 06:12:51;;;;;;;0.00;0.00;;;;;;;;;;6268989;22;20019;-92
2023/12/18 06:15:18;;;;;;;0.00;0.00;;;;;;;;;;6254408;22;20008;-92
2023/12/18 06:17:44;;;;;;;0.00;0.00;;;;;;;;;;6232438;22;20003;-89
2023/12/18 06:20:11;;;;;;;0.00;0.00;;;;;;;;;;6256037;22;20530;-90
2023/12/18 06:22:37;;;;;;;0.00;0.00;;;;;;;;;;6275546;22;19999;-90
2023/12/18 06:25:03;;;;;;;0.00;0.00;;;;;;;;;;6266158;22;20023;-90
2023/12/18 06:27:30;;;;;;;0.00;0.00;;;;;;;;;;6241192;22;20000;-88
2023/12/18 06:30:05;;;;;;;0.00;0.00;;;;;;;;;;6209498;22;20015;-87
2023/12/18 06:32:32;;;;;;;0.00;0.00;;;;;;;;;;6285720;22;19996;-85
2023/12/18 06:35:00;;;;;;;0.00;0.00;;;;;;;;;;6250642;22;20289;-87
2023/12/18 06:37:28;;;;;;;0.00;0.00;;;;;;;;;;6285513;22;20000;-89
2023/12/18 06:39:54;;;;;;;0.00;0.00;;;;;;;;;;6238902;22;20008;-90
2023/12/18 06:42:20;;;;;;;0.10;0.00;;;;;;;;;;6272928;22;20002;-89
2023/12/18 06:44:56;;;;;;;0.00;0.00;;;;;;;;;;6271867;22;20008;-87
2023/12/18 06:47:33;;;;;;;0.00;0.00;;;;;;;;;;6237038;22;20010;-84
2023/12/18 06:50:03;;;;;;;0.00;0.00;;;;;;;;;;6191622;22;20252;-88
2023/12/18 06:52:43;;;;;;;0.00;0.00;;;;;;;;;;6217837;22;20364;-89
2023/12/18 06:55:09;;;;;;;0.00;0.00;;;;;;;;;;6254800;22;20095;-88
2023/12/18 06:58:23;;;;;;;0.00;0.00;;;;;;;;;;6255089;22;20004;-90
2023/12/18 07:01:04;;;;;;;0.00;0.00;;;;;;;;;;6235983;22;20027;-87
2023/12/18 07:03:35;;;;;;;0.00;0.00;;;;;;;;;;6221163;22;20016;-83
2023/12/18 07:06:28;;;;;;;0.00;0.00;;;;;;;;;;6226188;22;20039;-89
2023/12/18 07:11:32;;;;;;;0.00;0.00;;;;;;;;;;6249646;22;20024;-84
2023/12/18 07:13:59;;;;;;;0.00;0.00;;;;;;;;;;6188502;23;20014;-83
2023/12/18 07:16:53;;;;;;;;;;;;;;;;;;;;;
2023/12/18 07:19:19;;;;;;;0.00;0.00;;;;;;;;;;6242258;23;20020;-83
2023/12/18 07:25:13;;;;;;;0.00;0.00;;;;;;;;;;6170807;23;20027;-84
2023/12/18 07:27:41;;;;;;;0.00;0.00;;;;;;;;;;6201313;23;20000;-88
2023/12/18 07:30:07;;;;;;;0.00;0.00;;;;;;;;;;6199305;23;20004;-87
2023/12/18 07:32:45;;;;;;;0.00;0.00;;;;;;;;;;6175251;23;20032;-85
2023/12/18 07:35:25;;;;;;;0.00;0.00;;;;;;;;;;6220636;23;20000;-87
2023/12/18 07:37:51;;;;;;;0.00;0.00;;;;;;;;;;6222618;23;20014;-84
2023/12/18 07:40:17;;;;;;;0.00;0.00;;;;;;;;;;6195385;23;20032;-82
2023/12/18 07:43:28;;;;;;;0.00;0.00;;;;;;;;;;6222492;23;20188;-88
2023/12/18 07:46:07;;;;;;;0.00;0.00;;;;;;;;;;6229194;23;20004;-89
2023/12/18 07:48:53;;;;;;;0.00;0.00;;;;;;;;;;6227984;23;20034;-87
2023/12/18 07:51:25;;;;;;;0.00;0.00;;;;;;;;;;6204092;23;20510;-86
2023/12/18 07:53:51;;;;;;;0.00;0.00;;;;;;;;;;6255693;23;20420;-87
2023/12/18 07:56:33;;;;;;;0.00;0.00;;;;;;;;;;6208971;23;20064;-84
2023/12/18 08:01:34;;;;;;;0.00;0.00;;;;;;;;;;6269573;22;20057;-91
2023/12/18 08:04:13;;;;;;;0.00;0.00;;;;;;;;;;6198669;22;20035;-92
2023/12/18 08:10:05;;;;;;;0.00;0.00;;;;;;;;;;6263557;22;20008;-85
2023/12/18 08:13:06;;;;;;;0.00;0.00;;;;;;;;;;6201300;22;20419;-89
2023/12/18 08:15:32;;;;;;;0.00;0.00;;;;;;;;;;6254557;22;20343;-89
2023/12/18 08:21:25;;;;;;;0.00;0.00;;;;;;;;;;6280647;22;20034;-87
2023/12/18 08:23:58;;;;;;;0.00;0.00;;;;;;;;;;6281418;22;20502;-91
2023/12/18 08:26:26;;;;;;;0.00;0.00;;;;;;;;;;6224390;22;20008;-86
2023/12/18 08:28:52;;;;;;;0.00;0.00;;;;;;;;;;6269979;22;20007;-83
2023/12/18 08:31:21;;;;;;;0.15;0.00;;;;;;;;;;6276765;22;20053;-87
2023/12/18 08:33:47;;;;;;;0.00;0.00;;;;;;;;;;6279360;22;20470;-85
2023/12/18 08:36:13;;;;;;;0.00;0.00;;;;;;;;;;6281341;22;20091;-86
2023/12/18 08:38:47;;;;;;;0.00;0.00;;;;;;;;;;6281654;22;20041;-86
2023/12/18 08:41:13;;;;;;;0.00;0.00;;;;;;;;;;6286286;22;20351;-91
2023/12/18 08:43:39;;;;;;;0.00;0.00;;;;;;;;;;6284466;22;20004;-91
2023/12/18 08:46:05;;;;;;;0.00;0.00;;;;;;;;;;6286064;22;20019;-91
2023/12/18 08:48:31;;;;;;;0.00;0.00;;;;;;;;;;6233821;22;20018;-90
2023/12/18 08:51:01;;;;;;;0.00;0.00;;;;;;;;;;6290161;22;20027;-90
2023/12/18 08:53:32;;;;;;;0.00;0.00;;;;;;;;;;6270880;22;20007;-92
2023/12/18 08:56:01;;;;;;;0.00;0.00;;;;;;;;;;6289565;22;20007;-93
2023/12/18 08:58:28;;;;;;;0.00;0.00;;;;;;;;;;6290454;22;20004;-89
2023/12/18 09:00:53;;;;;;;0.00;0.00;;;;;;;;;;6227349;22;20331;-87
2023/12/18 09:03:22;;;;;;;0.00;0.00;;;;;;;;;;6271168;22;20007;-90
2023/12/18 09:09:16;;;;;;;0.05;0.00;;;;;;;;;;6265985;22;20027;-90
2023/12/18 09:11:42;;;;;;;0.00;0.00;;;;;;;;;;6254575;23;20019;-90
2023/12/18 09:14:29;;;;;;;0.00;0.00;;;;;;;;;;6232980;23;20078;-88
2023/12/18 09:16:55;;;;;;;0.00;0.00;;;;;;;;;;6248945;23;20043;-88
2023/12/18 09:19:20;;;;;;;0.00;0.00;;;;;;;;;;6250134;23;20311;-89
2023/12/18 09:21:46;;;;;;;0.00;0.00;;;;;;;;;;6249203;23;20420;-90
2023/12/18 09:24:17;;;;;;;0.00;0.00;;;;;;;;;;6249880;23;20460;-87
2023/12/18 09:26:43;;;;;;;0.00;0.00;;;;;;;;;;6246846;23;20069;-87
2023/12/18 09:29:09;;;;;;;0.00;0.00;;;;;;;;;;6246897;23;20503;-91
2023/12/18 09:32:07;;;;;;;0.00;0.00;;;;;;;;;;6209524;23;20004;-93
2023/12/18 09:34:33;;;;;;;0.00;0.00;;;;;;;;;;6226502;23;20040;-92
2023/12/18 09:36:59;;;;;;;0.00;0.00;;;;;;;;;;6221524;23;20507;-90
2023/12/18 09:39:28;;;;;;;0.00;0.00;;;;;;;;;;6200091;23;20011;-89
2023/12/18 09:42:05;;;;;;;0.00;0.00;;;;;;;;;;6230783;23;19988;-90
2023/12/18 09:44:58;;;;;;;0.00;0.00;;;;;;;;;;6238611;23;20430;-87
2023/12/18 09:47:46;;;;;;;0.00;0.00;;;;;;;;;;6194765;23;20016;-89
2023/12/18 09:50:12;;;;;;;0.00;0.00;;;;;;;;;;6234810;23;20066;-88
2023/12/18 10:02:17;;;;;;;0.00;0.00;;;;;;;;;;6259568;22;20030;-87
2023/12/18 10:05:06;;;;;;;0.00;0.00;;;;;;;;;;6189655;22;20027;-86
2023/12/18 10:07:33;;;;;;;0.00;0.00;;;;;;;;;;6284911;22;20081;-87
2023/12/18 10:15:58;;;;;;;0.00;0.00;;;;;;;;;;6274259;22;20022;-89
2023/12/18 10:21:54;;;;;;;0.00;0.00;;;;;;;;;;6166168;22;20073;-84
2023/12/18 10:25:14;;;;;;;0.00;0.00;;;;;;;;;;6249324;22;20004;-84
2023/12/18 10:27:55;;;;;;;0.00;0.00;;;;;;;;;;6296206;22;19995;-88
2023/12/18 10:30:25;;;;;;;0.00;0.00;;;;;;;;;;6205168;22;20026;-87
2023/12/18 10:44:09;;;;;;;0.00;0.00;;;;;;;;;;6257202;22;20022;-88
2023/12/18 10:46:34;;;;;;;0.00;0.00;;;;;;;;;;6206372;22;20448;-83
2023/12/18 10:49:48;;;;;;;0.00;0.00;;;;;;;;;;6200250;22;20273;-89
2023/12/18 10:52:25;;;;;;;0.00;0.00;;;;;;;;;;6242142;22;20087;-89
2023/12/18 10:54:52;;;;;;;0.00;0.00;;;;;;;;;;6193098;22;20284;-81
2023/12/18 11:00:13;;;;;;;0.00;0.00;;;;;;;;;;6186181;23;20048;-87
2023/12/18 11:13:27;;;;;;;0.00;0.00;;;;;;;;;;6272462;22;20564;-92
2023/12/18 11:16:31;;;;;;;0.00;0.00;;;;;;;;;;6244136;22;20007;-86
2023/12/18 11:22:50;;;;;;;0.00;0.00;;;;;;;;;;6273186;22;20003;-90
2023/12/18 11:25:18;;;;;;;0.00;0.00;;;;;;;;;;6173638;22;20015;-91
2023/12/18 11:31:05;;;;;;;0.00;0.00;;;;;;;;;;6279562;22;20035;-91
2023/12/18 11:33:33;;;;;;;0.00;0.00;;;;;;;;;;6231184;22;20034;-91
2023/12/18 11:39:02;;;;;;;0.00;0.00;;;;;;;;;;6277141;22;20080;-91
2023/12/18 11:44:08;;;;;;;0.00;0.00;;;;;;;;;;6264279;22;20363;-87
2023/12/18 11:46:34;;;;;;;0.00;0.00;;;;;;;;;;6246102;22;19999;-91
2023/12/18 11:49:02;;;;;;;0.00;0.00;;;;;;;;;;6222346;22;20087;-90
2023/12/18 11:51:28;;;;;;;0.00;0.00;;;;;;;;;;6221973;22;20059;-90
2023/12/18 11:53:57;;;;;;;0.00;0.00;;;;;;;;;;6223413;22;20014;-89
2023/12/18 11:56:23;;;;;;;0.00;0.00;;;;;;;;;;6218514;22;20096;-92
2023/12/18 11:58:49;;;;;;;0.00;0.00;;;;;;;;;;6226808;22;20083;-94
2023/12/18 12:01:22;;;;;;;0.00;0.00;;;;;;;;;;6223302;22;20048;-92
2023/12/18 12:03:57;;;;;;;0.00;0.00;;;;;;;;;;6199354;22;20509;-91
2023/12/18 12:06:35;;;;;;;0.00;0.00;;;;;;;;;;6219640;22;20016;-93
2023/12/18 12:09:00;;;;;;;0.00;0.00;;;;;;;;;;6161357;23;20009;-94
2023/12/18 12:11:45;;;;;;;0.00;0.00;;;;;;;;;;6171496;23;20108;-93
2023/12/18 12:17:01;;;;;;;0.00;0.00;;;;;;;;;;6269921;22;20015;-93
2023/12/18 12:19:36;;;;;;;0.00;0.00;;;;;;;;;;6173176;23;20008;-92
2023/12/18 12:22:12;;;;;;;;;;;;;;;;;;;;;
2023/12/18 12:24:44;;;;;;;0.00;0.00;;;;;;;;;;6217076;23;20032;-89
2023/12/18 12:27:11;;;;;;;0.00;0.00;;;;;;;;;;6165695;23;20336;-87
2023/12/18 12:29:37;;;;;;;0.00;0.00;;;;;;;;;;6169441;23;20012;-90
2023/12/18 12:32:10;;;;;;;0.00;0.00;;;;;;;;;;6238557;23;20126;-87
2023/12/18 12:34:39;;;;;;;0.00;0.00;;;;;;;;;;6167538;23;20308;-82
2023/12/18 12:37:05;;;;;;;0.00;0.00;;;;;;;;;;6189281;23;20091;-83
2023/12/18 12:39:31;;;;;;;0.00;0.00;;;;;;;;;;6213856;23;20412;-82
2023/12/18 12:41:57;;;;;;;0.00;0.00;;;;;;;;;;6188729;23;20406;-83
2023/12/18 12:44:23;;;;;;;0.17;0.00;;;;;;;;;;6163458;23;20012;-83
2023/12/18 12:46:48;;;;;;;0.00;0.00;;;;;;;;;;6165696;23;20008;-83
2023/12/18 12:49:14;;;;;;;0.00;0.00;;;;;;;;;;6165828;23;20004;-84
2023/12/18 12:51:39;;;;;;;0.00;0.00;;;;;;;;;;6216146;23;20015;-84
2023/12/18 12:54:05;;;;;;;0.00;0.00;;;;;;;;;;6167184;23;20091;-85
2023/12/18 12:56:31;;;;;;;0.00;0.00;;;;;;;;;;6217320;23;20000;-84
2023/12/18 12:58:56;;;;;;;0.00;0.00;;;;;;;;;;6168189;23;20000;-84
2023/12/18 13:01:22;;;;;;;0.00;0.00;;;;;;;;;;6192511;23;20359;-84
2023/12/18 13:03:50;;;;;;;0.00;0.00;;;;;;;;;;6192132;23;20083;-84
2023/12/18 13:06:17;;;;;;;0.00;0.00;;;;;;;;;;6217819;23;20463;-84
2023/12/18 13:08:42;;;;;;;0.00;0.00;;;;;;;;;;6206236;23;20000;-83
2023/12/18 13:11:08;;;;;;;0.00;0.00;;;;;;;;;;6240780;23;20059;-83
2023/12/18 13:13:34;;;;;;;0.00;0.00;;;;;;;;;;6262501;23;20461;-85
2023/12/18 13:15:59;;;;;;;0.00;0.00;;;;;;;;;;6176009;23;20031;-84
2023/12/18 13:18:26;;;;;;;0.00;0.00;;;;;;;;;;6232031;23;20015;-84
2023/12/18 13:20:52;;;;;;;0.00;0.00;;;;;;;;;;6199674;23;20011;-84
2023/12/18 13:23:17;;;;;;;0.00;0.00;;;;;;;;;;6224049;23;20000;-82
2023/12/18 13:25:43;;;;;;;0.00;0.00;;;;;;;;;;6244160;23;20008;-85
2023/12/18 13:28:09;;;;;;;0.10;0.00;;;;;;;;;;6167797;23;20016;-83
2023/12/18 13:30:35;;;;;;;0.00;0.00;;;;;;;;;;6192102;23;20004;-84
2023/12/18 13:33:48;;;;;;;0.00;0.00;;;;;;;;;;6192457;23;19996;-81
2023/12/18 13:36:14;;;;;;;0.00;0.00;;;;;;;;;;6219142;23;20016;-84
2023/12/18 13:38:45;;;;;;;0.00;0.00;;;;;;;;;;6194584;23;20015;-87
2023/12/18 13:41:10;;;;;;;0.00;0.00;;;;;;;;;;6178772;23;20000;-86
2023/12/18 13:43:36;;;;;;;0.00;0.00;;;;;;;;;;6219483;23;20353;-85
2023/12/18 13:46:02;;;;;;;0.00;0.00;;;;;;;;;;6220158;23;20004;-83
2023/12/18 13:48:27;;;;;;;0.00;0.00;;;;;;;;;;6191865;23;20070;-85
2023/12/18 13:50:53;;;;;;;0.00;0.00;;;;;;;;;;6191585;23;20407;-85
2023/12/18 13:53:19;;;;;;;0.00;0.00;;;;;;;;;;6192269;23;20004;-82
2023/12/18 13:55:57;;;;;;;0.00;0.00;;;;;;;;;;6218586;23;20008;-86
2023/12/18 13:58:29;;;;;;;0.00;0.00;;;;;;;;;;6177770;23;20027;-88
2023/12/18 14:00:55;;;;;;;0.00;0.00;;;;;;;;;;6199476;23;20466;-84
2023/12/18 14:03:21;;;;;;;0.00;0.00;;;;;;;;;;6221907;23;19996;-88
2023/12/18 14:05:46;;;;;;;0.00;0.00;;;;;;;;;;6230869;23;20001;-87
2023/12/18 14:08:12;;;;;;;0.00;0.00;;;;;;;;;;6235237;23;20052;-90
2023/12/18 14:10:42;;;;;;;0.00;0.00;;;;;;;;;;6231143;23;20056;-87
2023/12/18 14:13:11;;;;;;;0.00;0.00;;;;;;;;;;6176276;23;20115;-89
2023/12/18 14:15:37;;;;;;;0.00;0.00;;;;;;;;;;6195965;23;19999;-85
2023/12/18 14:18:05;;;;;;;0.00;0.00;;;;;;;;;;6245719;23;20011;-91
2023/12/18 14:20:30;;;;;;;0.00;0.00;;;;;;;;;;6218699;23;20095;-86
2023/12/18 14:22:56;;;;;;;0.00;0.00;;;;;;;;;;6245763;23;20004;-87
2023/12/18 14:25:21;;;;;;;0.00;0.00;;;;;;;;;;6168726;23;20082;-83
2023/12/18 14:27:47;;;;;;;0.00;0.00;;;;;;;;;;6244623;23;20414;-84
2023/12/18 14:30:13;;;;;;;0.00;0.00;;;;;;;;;;6218541;23;20000;-81
2023/12/18 14:32:38;;;;;;;0.00;0.00;;;;;;;;;;6194903;23;20015;-85
2023/12/18 14:35:04;;;;;;;0.00;0.00;;;;;;;;;;6244921;23;20415;-80
2023/12/18 14:37:30;;;;;;;0.00;0.00;;;;;;;;;;6218402;23;20083;-83
2023/12/18 14:39:55;;;;;;;0.00;0.00;;;;;;;;;;6218170;23;20058;-78
2023/12/18 14:42:21;;;;;;;0.00;0.00;;;;;;;;;;6244527;23;20419;-78
2023/12/18 14:44:46;;;;;;;0.00;0.00;;;;;;;;;;6244783;23;20004;-78
2023/12/18 14:47:12;;;;;;;0.00;0.00;;;;;;;;;;6245623;23;20481;-79
2023/12/18 14:49:37;;;;;;;0.00;0.00;;;;;;;;;;6192875;23;20110;-82
2023/12/18 14:52:04;;;;;;;0.00;0.00;;;;;;;;;;6244948;23;20157;-83
2023/12/18 14:54:30;;;;;;;0.00;0.00;;;;;;;;;;6218276;23;19996;-84
2023/12/18 14:56:55;;;;;;;0.00;0.00;;;;;;;;;;6218141;23;20004;-81
2023/12/18 14:59:21;;;;;;;0.00;0.00;;;;;;;;;;6218058;23;20387;-83
2023/12/18 15:01:47;;;;;;;0.00;0.00;;;;;;;;;;6192752;23;20415;-80
2023/12/18 15:04:12;;;;;;;0.00;0.00;;;;;;;;;;6218345;23;20331;-77
2023/12/18 15:06:40;;;;;;;0.00;0.00;;;;;;;;;;6244690;23;19996;-88
2023/12/18 15:09:06;;;;;;;0.00;0.00;;;;;;;;;;6193539;23;20431;-88
2023/12/18 15:11:31;;;;;;;0.00;0.00;;;;;;;;;;6169309;23;20107;-90
2023/12/18 15:14:02;;;;;;;0.00;0.00;;;;;;;;;;6168594;23;19996;-89
2023/12/18 15:16:28;;;;;;;0.00;0.00;;;;;;;;;;6170179;23;20023;-89
2023/12/18 15:19:09;;;;;;;;;;;;;;;;;;;;;
2023/12/18 15:21:50;;;;;;;0.00;0.00;;;;;;;;;;6188037;23;20084;-92
2023/12/18 15:24:16;;;;;;;0.00;0.00;;;;;;;;;;6163421;23;20379;-92
2023/12/18 15:26:41;;;;;;;0.00;0.00;;;;;;;;;;6163268;23;20001;-89
2023/12/18 15:29:07;;;;;;;0.00;0.00;;;;;;;;;;6215526;23;20031;-90
2023/12/18 15:31:35;;;;;;;0.00;0.00;;;;;;;;;;6187825;23;20000;-88
2023/12/18 15:34:03;;;;;;;0.00;0.00;;;;;;;;;;6214344;23;20008;-93
2023/12/18 15:36:29;;;;;;;0.00;0.00;;;;;;;;;;6139179;23;20005;-92
2023/12/18 15:38:54;;;;;;;0.00;0.00;;;;;;;;;;6188388;23;20395;-88
2023/12/18 15:41:20;;;;;;;0.00;0.00;;;;;;;;;;6188431;23;20325;-89
2023/12/18 15:43:48;;;;;;;0.00;0.00;;;;;;;;;;6188085;23;20413;-91
2023/12/18 15:46:14;;;;;;;0.00;0.00;;;;;;;;;;6139735;23;20403;-91
2023/12/18 15:48:39;;;;;;;0.00;0.00;;;;;;;;;;6138463;23;20012;-90
2023/12/18 15:51:16;;;;;;;0.00;0.00;;;;;;;;;;6214550;23;20439;-91
2023/12/18 15:53:45;;;;;;;0.00;0.00;;;;;;;;;;6188533;23;20000;-92
2023/12/18 15:56:17;;;;;;;0.00;0.00;;;;;;;;;;6188264;23;20362;-92
2023/12/18 15:58:43;;;;;;;0.00;0.00;;;;;;;;;;6189267;23;20044;-90
2023/12/18 16:01:10;;;;;;;0.00;0.00;;;;;;;;;;6213714;23;20029;-90
2023/12/18 16:03:52;;;;;;;;;;;;;;;;;;;;;
2023/12/18 16:06:18;;;;;;;0.00;0.00;;;;;;;;;;6191737;23;20084;-89
2023/12/18 16:09:04;;;;;;;0.00;0.00;;;;;;;;;;6165786;23;20017;-90
2023/12/18 16:11:30;;;;;;;0.00;0.00;;;;;;;;;;6224878;23;20062;-92
2023/12/18 16:14:07;;;;;;;0.00;0.00;;;;;;;;;;6202819;23;20009;-92
2023/12/18 16:16:33;;;;;;;0.00;0.00;;;;;;;;;;6205875;22;20006;-89
2023/12/18 16:19:24;;;;;;;0.00;0.00;;;;;;;;;;6265574;23;20004;-91
2023/12/18 16:21:55;;;;;;;0.00;0.00;;;;;;;;;;6266546;23;19998;-92
2023/12/18 16:24:23;;;;;;;0.00;0.00;;;;;;;;;;6221906;23;20003;-90
2023/12/18 16:26:49;;;;;;;0.00;0.00;;;;;;;;;;6221174;23;20068;-91
2023/12/18 16:29:43;;;;;;;0.00;0.00;;;;;;;;;;6217824;23;20013;-91